createdAt,value
2019-02-14T00:00:26.768Z,8.42
2019-02-14T00:02:55.759Z,8.39
2019-02-14T00:05:22.915Z,8.27
2019-02-14T00:07:49.991Z,8.28
2019-02-14T00:10:17.643Z,8.50
2019-02-14T00:12:46.494Z,8.61
2019-02-14T00:15:13.560Z,8.51
2019-02-14T00:17:40.959Z,8.27
2019-02-14T00:20:08.562Z,8.66
2019-02-14T00:22:36.139Z,8.75
2019-02-14T00:25:04.430Z,8.65
2019-02-14T00:27:31.569Z,8.57
2019-02-14T00:29:58.635Z,8.43
2019-02-14T00:32:26.120Z,8.67
2019-02-14T00:34:53.228Z,8.44
2019-02-14T00:37:20.287Z,8.39
2019-02-14T00:39:47.806Z,8.32
2019-02-14T00:42:14.866Z,8.48
2019-02-14T00:44:41.928Z,8.44
2019-02-14T00:47:11.919Z,8.44
2019-02-14T00:49:38.966Z,8.22
2019-02-14T00:52:06.353Z,8.30
2019-02-14T00:54:33.747Z,8.30
2019-02-14T00:57:00.816Z,8.55
2019-02-14T00:59:27.880Z,8.22
2019-02-14T01:01:56.173Z,8.16
2019-02-14T01:04:23.359Z,8.23
2019-02-14T01:06:50.943Z,8.36
2019-02-14T01:09:19.766Z,8.15
2019-02-14T01:11:47.090Z,8.02
2019-02-14T01:14:15.132Z,8.06
2019-02-14T01:16:42.549Z,8.21
2019-02-14T01:19:10.588Z,8.19
2019-02-14T01:21:37.619Z,8.01
2019-02-14T01:24:04.727Z,8.05
2019-02-14T01:26:31.780Z,7.86
2019-02-14T01:28:58.862Z,8.02
2019-02-14T01:31:25.906Z,7.99
2019-02-14T01:33:52.970Z,8.02
2019-02-14T01:36:20.123Z,7.96
2019-02-14T01:38:47.181Z,7.69
2019-02-14T01:41:14.673Z,7.79
2019-02-14T01:43:41.734Z,7.81
2019-02-14T01:46:08.769Z,7.90
2019-02-14T01:48:37.637Z,7.98
2019-02-14T01:51:05.822Z,7.74
2019-02-14T01:53:32.959Z,7.82
2019-02-14T01:56:00.141Z,8.02
2019-02-14T01:58:28.301Z,8.02
2019-02-14T02:00:55.339Z,8.13
2019-02-14T02:03:22.593Z,8.00
2019-02-14T02:05:50.985Z,7.91
2019-02-14T02:08:19.412Z,7.81
2019-02-14T02:10:47.120Z,7.60
2019-02-14T02:13:14.184Z,7.70
2019-02-14T02:15:41.267Z,7.77
2019-02-14T02:18:08.452Z,7.76
2019-02-14T02:20:36.183Z,8.03
2019-02-14T02:23:03.339Z,7.86
2019-02-14T02:25:30.515Z,7.93
2019-02-14T02:27:57.938Z,7.72
2019-02-14T02:30:25.395Z,8.11
2019-02-14T02:32:53.161Z,8.07
2019-02-14T02:35:20.821Z,8.01
2019-02-14T02:37:47.978Z,8.02
2019-02-14T02:40:15.395Z,8.12
2019-02-14T02:42:42.454Z,8.23
2019-02-14T02:45:11.369Z,8.06
2019-02-14T02:47:38.462Z,8.04
2019-02-14T02:50:07.850Z,8.07
2019-02-14T02:52:36.925Z,8.20
2019-02-14T02:55:04.411Z,7.97
2019-02-14T02:57:32.235Z,7.84
2019-02-14T02:59:59.329Z,7.80
2019-02-14T03:02:26.633Z,8.00
2019-02-14T03:04:54.134Z,8.04
2019-02-14T03:07:21.545Z,7.88
2019-02-14T03:09:48.575Z,8.04
2019-02-14T03:12:17.693Z,8.00
2019-02-14T03:14:44.717Z,7.96
2019-02-14T03:17:12.162Z,7.79
2019-02-14T03:19:39.193Z,7.89
2019-02-14T03:22:06.269Z,7.67
2019-02-14T03:24:33.317Z,7.75
2019-02-14T03:27:00.373Z,7.73
2019-02-14T03:29:27.393Z,7.57
2019-02-14T03:31:54.511Z,7.78
2019-02-14T03:34:21.537Z,7.81
2019-02-14T03:36:50.425Z,7.91
2019-02-14T03:39:17.444Z,7.70
2019-02-14T03:41:45.564Z,7.86
2019-02-14T03:44:12.601Z,8.08
2019-02-14T03:46:39.842Z,8.04
2019-02-14T03:49:07.936Z,7.79
2019-02-14T03:51:35.024Z,7.43
2019-02-14T03:54:02.434Z,7.81
2019-02-14T03:56:29.533Z,7.81
2019-02-14T03:58:56.590Z,7.50
2019-02-14T04:01:23.658Z,7.64
2019-02-14T04:03:50.738Z,7.61
2019-02-14T04:06:17.825Z,7.51
2019-02-14T04:08:44.885Z,7.63
2019-02-14T04:11:12.057Z,7.35
2019-02-14T04:13:39.671Z,7.50
2019-02-14T04:16:06.750Z,7.41
2019-02-14T04:18:33.874Z,7.67
2019-02-14T04:21:01.264Z,7.62
2019-02-14T04:23:28.761Z,7.51
2019-02-14T04:25:56.214Z,7.32
2019-02-14T04:28:23.369Z,7.44
2019-02-14T04:30:50.432Z,7.24
2019-02-14T04:33:18.233Z,7.60
2019-02-14T04:35:46.201Z,7.62
2019-02-14T04:38:13.967Z,7.68
2019-02-14T04:40:42.404Z,7.35
2019-02-14T04:43:10.111Z,7.23
2019-02-14T04:45:37.769Z,7.32
2019-02-14T04:48:05.946Z,7.41
2019-02-14T04:50:33.603Z,7.17
2019-02-14T04:53:01.683Z,7.09
2019-02-14T04:55:30.978Z,6.95
2019-02-14T04:57:58.361Z,6.96
2019-02-14T05:00:25.991Z,7.01
2019-02-14T05:02:53.474Z,7.03
2019-02-14T05:05:21.109Z,6.93
2019-02-14T05:07:49.183Z,7.07
2019-02-14T05:10:16.842Z,6.95
2019-02-14T05:12:44.915Z,7.28
2019-02-14T05:15:12.678Z,7.01
2019-02-14T05:17:40.031Z,7.14
2019-02-14T05:20:07.987Z,6.97
2019-02-14T05:22:36.586Z,6.94
2019-02-14T05:25:04.340Z,6.89
2019-02-14T05:27:31.537Z,6.96
2019-02-14T05:29:58.621Z,7.01
2019-02-14T05:32:25.743Z,6.80
2019-02-14T05:34:52.923Z,6.76
2019-02-14T05:37:21.061Z,6.87
2019-02-14T05:39:48.171Z,7.25
2019-02-14T05:42:15.341Z,7.35
2019-02-14T05:44:42.796Z,7.15
2019-02-14T05:47:09.969Z,7.21
2019-02-14T05:49:37.301Z,7.21
2019-02-14T05:52:04.480Z,7.18
2019-02-14T05:54:32.622Z,7.21
2019-02-14T05:56:59.802Z,7.36
2019-02-14T05:59:27.247Z,7.04
2019-02-14T06:01:56.100Z,7.25
2019-02-14T06:04:25.182Z,7.13
2019-02-14T06:06:52.307Z,7.20
2019-02-14T06:09:19.389Z,7.55
2019-02-14T06:11:46.576Z,7.46
2019-02-14T06:14:13.997Z,7.53
2019-02-14T06:16:42.481Z,7.00
2019-02-14T06:19:10.855Z,6.87
2019-02-14T06:21:37.928Z,7.07
2019-02-14T06:24:05.131Z,7.30
2019-02-14T06:26:32.560Z,7.22
2019-02-14T06:28:59.912Z,6.90
2019-02-14T06:31:26.991Z,7.08
2019-02-14T06:33:54.879Z,6.84
2019-02-14T06:36:22.544Z,6.84
2019-02-14T06:38:50.504Z,7.13
2019-02-14T06:41:18.587Z,6.96
2019-02-14T06:43:47.788Z,6.99
2019-02-14T06:46:15.541Z,7.22
2019-02-14T06:48:44.074Z,6.46
2019-02-14T06:51:11.609Z,6.69
2019-02-14T06:53:39.345Z,6.78
2019-02-14T06:56:06.951Z,6.92
2019-02-14T06:58:34.035Z,6.94
2019-02-14T07:01:01.234Z,7.13
2019-02-14T07:03:28.474Z,7.36
2019-02-14T07:05:56.046Z,7.25
2019-02-14T07:08:23.433Z,7.09
2019-02-14T07:10:51.079Z,7.04
2019-02-14T07:13:18.142Z,7.19
2019-02-14T07:15:45.539Z,7.05
2019-02-14T07:18:12.727Z,7.12
2019-02-14T07:20:40.189Z,7.08
2019-02-14T07:23:07.262Z,7.05
2019-02-14T07:25:34.484Z,7.03
2019-02-14T07:28:01.852Z,6.86
2019-02-14T07:30:29.974Z,6.52
2019-02-14T07:32:58.193Z,6.45
2019-02-14T07:35:25.371Z,6.85
2019-02-14T07:37:52.432Z,6.75
2019-02-14T07:40:19.737Z,6.85
2019-02-14T07:42:47.202Z,7.14
2019-02-14T07:45:14.304Z,6.93
2019-02-14T07:47:41.390Z,6.85
2019-02-14T07:50:09.539Z,6.56
2019-02-14T07:52:36.722Z,6.79
2019-02-14T07:55:05.128Z,6.85
2019-02-14T07:57:33.444Z,6.92
2019-02-14T08:00:00.566Z,6.85
2019-02-14T08:02:27.599Z,6.81
2019-02-14T08:04:55.017Z,6.42
2019-02-14T08:07:22.377Z,6.39
2019-02-14T08:09:49.470Z,6.75
2019-02-14T08:12:17.632Z,6.63
2019-02-14T08:14:44.949Z,6.57
2019-02-14T08:17:12.182Z,6.38
2019-02-14T08:19:39.275Z,6.51
2019-02-14T08:22:06.691Z,6.51
2019-02-14T08:24:34.635Z,6.52
2019-02-14T08:27:03.015Z,6.71
2019-02-14T08:29:30.405Z,6.84
2019-02-14T08:31:57.510Z,6.99
2019-02-14T08:34:25.894Z,6.89
2019-02-14T08:36:54.230Z,6.86
2019-02-14T08:39:23.674Z,6.58
2019-02-14T08:41:55.333Z,6.65
2019-02-14T08:44:22.766Z,6.49
2019-02-14T08:46:50.556Z,6.95
2019-02-14T08:49:18.931Z,6.99
2019-02-14T08:51:50.679Z,6.89
2019-02-14T08:54:18.176Z,6.73
2019-02-14T08:56:46.624Z,6.80
2019-02-14T08:59:14.386Z,6.93
2019-02-14T09:01:42.045Z,6.97
2019-02-14T09:04:13.432Z,7.03
2019-02-14T09:06:41.877Z,6.97
2019-02-14T09:09:08.962Z,6.99
2019-02-14T09:11:36.903Z,6.90
2019-02-14T09:14:05.720Z,6.81
2019-02-14T09:16:33.139Z,7.03
2019-02-14T09:19:00.598Z,7.02
2019-02-14T09:21:28.473Z,7.05
2019-02-14T09:23:56.227Z,7.22
2019-02-14T09:26:24.194Z,7.11
2019-02-14T09:28:52.774Z,7.17
2019-02-14T09:31:20.647Z,7.44
2019-02-14T09:33:48.352Z,7.45
2019-02-14T09:36:19.713Z,7.69
2019-02-14T09:38:47.110Z,7.46
2019-02-14T09:41:14.217Z,7.48
2019-02-14T09:43:42.708Z,7.69
2019-02-14T09:46:10.511Z,7.76
2019-02-14T09:48:38.031Z,7.62
2019-02-14T09:51:06.156Z,7.75
2019-02-14T09:53:36.462Z,7.77
2019-02-14T09:56:03.978Z,7.74
2019-02-14T09:58:31.784Z,7.72
2019-02-14T10:00:59.550Z,7.66
2019-02-14T10:03:27.767Z,7.87
2019-02-14T10:05:54.824Z,7.59
2019-02-14T10:08:24.994Z,7.47
2019-02-14T10:10:52.208Z,7.71
2019-02-14T10:13:20.212Z,8.19
2019-02-14T10:15:49.207Z,7.94
2019-02-14T10:18:17.994Z,7.83
2019-02-14T10:20:45.964Z,7.95
2019-02-14T10:23:13.163Z,8.03
2019-02-14T10:25:41.335Z,7.89
2019-02-14T10:28:09.045Z,8.02
2019-02-14T10:30:36.235Z,7.90
2019-02-14T10:33:03.678Z,7.81
2019-02-14T10:35:30.890Z,7.87
2019-02-14T10:37:59.235Z,7.88
2019-02-14T10:40:26.830Z,7.87
2019-02-14T10:42:54.402Z,7.89
2019-02-14T10:45:21.603Z,7.80
2019-02-14T10:47:49.423Z,7.98
2019-02-14T10:50:17.080Z,8.30
2019-02-14T10:52:44.770Z,8.17
2019-02-14T10:55:13.015Z,8.17
2019-02-14T10:57:40.199Z,8.54
2019-02-14T11:00:16.392Z,8.88
2019-02-14T11:02:44.295Z,8.72
2019-02-14T11:05:13.827Z,8.84
2019-02-14T11:07:41.254Z,9.29
2019-02-14T11:10:09.838Z,8.73
2019-02-14T11:12:37.299Z,9.06
2019-02-14T11:15:09.046Z,9.25
2019-02-14T11:17:36.096Z,9.63
2019-02-14T11:20:03.656Z,9.75
2019-02-14T11:22:31.792Z,9.70
2019-02-14T11:24:59.707Z,9.70
2019-02-14T11:27:27.206Z,9.49
2019-02-14T11:29:55.947Z,9.71
2019-02-14T11:32:23.408Z,9.78
2019-02-14T11:34:52.912Z,9.93
2019-02-14T11:37:20.672Z,9.99
2019-02-14T11:39:48.575Z,10.16
2019-02-14T11:42:18.047Z,10.26
2019-02-14T11:44:45.581Z,10.31
2019-02-14T11:47:13.371Z,10.42
2019-02-14T11:49:41.235Z,10.31
2019-02-14T11:52:09.101Z,10.26
2019-02-14T11:54:36.168Z,10.20
2019-02-14T11:57:07.655Z,9.94
2019-02-14T11:59:34.718Z,9.77
2019-02-14T12:02:02.611Z,9.76
2019-02-14T12:04:29.684Z,9.85
2019-02-14T12:06:57.121Z,10.20
2019-02-14T12:09:24.182Z,10.14
2019-02-14T12:11:51.931Z,10.10
2019-02-14T12:14:19.389Z,10.18
2019-02-14T12:16:47.564Z,10.07
2019-02-14T12:19:14.960Z,10.40
2019-02-14T12:21:42.673Z,10.50
2019-02-14T12:24:10.337Z,10.30
2019-02-14T12:26:38.411Z,10.58
2019-02-14T12:29:05.809Z,10.59
2019-02-14T12:31:32.904Z,10.59
2019-02-14T12:34:00.000Z,10.45
2019-02-14T12:36:27.530Z,10.85
2019-02-14T12:38:55.322Z,10.61
2019-02-14T12:41:23.052Z,10.85
2019-02-14T12:43:51.145Z,10.74
2019-02-14T12:46:20.315Z,10.83
2019-02-14T12:48:47.371Z,10.83
2019-02-14T12:51:14.455Z,10.84
2019-02-14T12:53:41.514Z,10.69
2019-02-14T12:56:08.675Z,10.67
2019-02-14T12:58:36.839Z,10.79
2019-02-14T13:01:05.650Z,10.75
2019-02-14T13:03:33.831Z,11.00
2019-02-14T13:06:02.241Z,11.00
2019-02-14T13:08:29.411Z,10.79
2019-02-14T13:10:56.503Z,10.96
2019-02-14T13:13:24.946Z,11.18
2019-02-14T13:15:53.829Z,10.82
2019-02-14T13:18:21.940Z,11.23
2019-02-14T13:20:52.865Z,11.23
2019-02-14T13:23:20.214Z,11.17
2019-02-14T13:25:47.252Z,11.53
2019-02-14T13:28:16.747Z,11.84
2019-02-14T13:30:44.160Z,12.50
2019-02-14T13:33:11.620Z,12.50
2019-02-14T13:35:38.706Z,12.90
2019-02-14T13:38:05.770Z,13.42
2019-02-14T13:40:33.117Z,14.87
2019-02-14T13:43:01.058Z,14.18
2019-02-14T13:45:29.576Z,13.90
2019-02-14T13:47:56.631Z,13.39
2019-02-14T13:50:23.714Z,12.81
2019-02-14T13:52:51.128Z,12.29
2019-02-14T13:55:18.177Z,12.12
2019-02-14T13:57:47.460Z,12.00
2019-02-14T14:00:17.329Z,11.31
2019-02-14T14:02:44.378Z,11.36
2019-02-14T14:05:12.353Z,11.52
2019-02-14T14:07:41.860Z,11.60
2019-02-14T14:10:08.979Z,11.73
2019-02-14T14:12:37.594Z,12.21
2019-02-14T14:15:05.304Z,12.11
2019-02-14T14:17:32.856Z,11.96
2019-02-14T14:20:00.808Z,11.37
2019-02-14T14:22:28.275Z,11.66
2019-02-14T14:24:55.390Z,11.95
2019-02-14T14:27:22.510Z,11.58
2019-02-14T14:29:49.632Z,11.58
2019-02-14T14:32:16.714Z,11.96
2019-02-14T14:34:44.389Z,12.76
2019-02-14T14:37:12.153Z,13.10
2019-02-14T14:39:46.031Z,12.12
2019-02-14T14:42:12.223Z,12.17
2019-02-14T14:44:48.523Z,11.96
2019-02-14T14:47:18.137Z,11.87
2019-02-14T14:49:45.600Z,11.58
2019-02-14T14:52:13.385Z,11.56
2019-02-14T14:54:41.762Z,11.95
2019-02-14T14:57:09.636Z,11.91
2019-02-14T14:59:37.160Z,11.02
2019-02-14T15:02:04.623Z,11.02
2019-02-14T15:04:31.742Z,10.86
2019-02-14T15:06:58.866Z,10.84
2019-02-14T15:09:26.262Z,10.94
2019-02-14T15:11:53.338Z,10.94
2019-02-14T15:14:20.439Z,11.02
2019-02-14T15:16:47.586Z,10.72
2019-02-14T15:19:15.714Z,10.72
2019-02-14T15:21:42.803Z,10.73
2019-02-14T15:24:09.973Z,10.60
2019-02-14T15:26:38.250Z,10.56
2019-02-14T15:29:05.378Z,10.93
2019-02-14T15:31:32.551Z,11.22
2019-02-14T15:33:59.919Z,11.56
2019-02-14T15:36:29.068Z,11.56
2019-02-14T15:38:56.751Z,11.16
2019-02-14T15:41:23.836Z,11.16
2019-02-14T15:43:51.311Z,10.66
2019-02-14T15:46:20.228Z,10.39
2019-02-14T15:48:47.971Z,10.39
2019-02-14T15:51:17.824Z,10.12
2019-02-14T15:53:46.240Z,9.91
2019-02-14T15:56:13.555Z,9.84
2019-02-14T15:58:41.476Z,9.75
2019-02-14T16:01:10.559Z,9.71
2019-02-14T16:03:40.134Z,9.42
2019-02-14T16:06:08.242Z,9.18
2019-02-14T16:08:36.016Z,9.23
2019-02-14T16:11:03.367Z,9.27
2019-02-14T16:13:33.527Z,9.29
2019-02-14T16:16:01.863Z,8.91
2019-02-14T16:18:29.876Z,8.89
2019-02-14T16:20:57.075Z,8.91
2019-02-14T16:23:24.469Z,8.76
2019-02-14T16:25:54.059Z,8.58
2019-02-14T16:28:22.944Z,8.59
2019-02-14T16:30:50.003Z,8.47
2019-02-14T16:33:17.755Z,8.33
2019-02-14T16:35:45.216Z,8.43
2019-02-14T16:38:13.931Z,8.18
2019-02-14T16:40:42.498Z,8.15
2019-02-14T16:43:09.994Z,8.21
2019-02-14T16:45:37.698Z,8.23
2019-02-14T16:48:05.045Z,7.96
2019-02-14T16:50:32.815Z,8.21
2019-02-14T16:52:59.866Z,8.20
2019-02-14T16:55:27.123Z,8.28
2019-02-14T16:57:56.455Z,8.10
2019-02-14T17:00:23.554Z,8.22
2019-02-14T17:02:50.653Z,7.99
2019-02-14T17:05:17.764Z,8.00
2019-02-14T17:07:44.861Z,8.07
2019-02-14T17:10:12.355Z,7.91
2019-02-14T17:12:39.971Z,7.96
2019-02-14T17:15:08.192Z,7.78
2019-02-14T17:17:35.328Z,7.68
2019-02-14T17:20:02.602Z,7.78
2019-02-14T17:22:30.091Z,7.77
2019-02-14T17:24:57.546Z,7.87
2019-02-14T17:27:25.298Z,7.65
2019-02-14T17:29:52.474Z,7.70
2019-02-14T17:32:19.554Z,7.54
2019-02-14T17:34:47.184Z,7.56
2019-02-14T17:37:16.236Z,7.41
2019-02-14T17:39:44.187Z,7.46
2019-02-14T17:42:11.305Z,7.37
2019-02-14T17:44:38.739Z,7.43
2019-02-14T17:47:06.210Z,7.44
2019-02-14T17:49:34.488Z,7.31
2019-02-14T17:52:01.910Z,7.38
2019-02-14T17:54:29.370Z,7.55
2019-02-14T17:56:57.117Z,7.33
2019-02-14T17:59:25.199Z,7.14
2019-02-14T18:01:52.852Z,7.30
2019-02-14T18:04:19.911Z,7.20
2019-02-14T18:06:46.998Z,7.34
2019-02-14T18:09:14.180Z,7.24
2019-02-14T18:11:41.548Z,7.39
2019-02-14T18:14:08.661Z,7.38
2019-02-14T18:16:35.731Z,7.26
2019-02-14T18:19:06.051Z,7.25
2019-02-14T18:21:33.189Z,7.44
2019-02-14T18:24:00.914Z,7.18
2019-02-14T18:26:30.085Z,7.31
2019-02-14T18:28:57.163Z,7.21
2019-02-14T18:31:24.267Z,7.15
2019-02-14T18:33:51.370Z,7.00
2019-02-14T18:36:20.935Z,7.17
2019-02-14T18:38:49.218Z,7.14
2019-02-14T18:41:17.315Z,7.03
2019-02-14T18:43:44.412Z,7.10
2019-02-14T18:46:12.477Z,7.19
2019-02-14T18:48:40.687Z,7.03
2019-02-14T18:51:08.189Z,6.89
2019-02-14T18:53:35.294Z,7.02
2019-02-14T18:56:03.043Z,7.15
2019-02-14T18:58:30.518Z,6.84
2019-02-14T19:00:59.402Z,6.78
2019-02-14T19:03:26.480Z,6.86
2019-02-14T19:05:54.649Z,6.84
2019-02-14T19:08:22.791Z,6.83
2019-02-14T19:10:51.575Z,6.79
2019-02-14T19:13:19.738Z,6.84
2019-02-14T19:15:47.335Z,6.73
2019-02-14T19:18:14.626Z,6.66
2019-02-14T19:20:41.699Z,6.85
2019-02-14T19:23:08.767Z,6.64
2019-02-14T19:25:36.314Z,6.65
2019-02-14T19:28:03.440Z,6.63
2019-02-14T19:30:30.485Z,6.55
2019-02-14T19:32:57.928Z,6.60
2019-02-14T19:35:24.986Z,6.54
2019-02-14T19:37:52.078Z,6.51
2019-02-14T19:40:20.002Z,6.59
2019-02-14T19:42:49.131Z,6.45
2019-02-14T19:45:16.225Z,6.49
2019-02-14T19:47:43.811Z,6.52
2019-02-14T19:50:10.953Z,6.54
2019-02-14T19:52:38.046Z,6.26
2019-02-14T19:55:07.150Z,6.46
2019-02-14T19:57:34.519Z,6.51
2019-02-14T20:00:01.918Z,6.53
2019-02-14T20:02:30.534Z,6.50
2019-02-14T20:04:58.794Z,6.17
2019-02-14T20:07:26.316Z,6.39
2019-02-14T20:09:53.384Z,6.54
2019-02-14T20:12:22.603Z,6.36
2019-02-14T20:14:49.865Z,6.42
2019-02-14T20:17:17.371Z,6.22
2019-02-14T20:19:46.297Z,6.12
2019-02-14T20:22:14.431Z,6.43
2019-02-14T20:24:41.838Z,6.26
2019-02-14T20:27:09.282Z,6.37
2019-02-14T20:29:37.607Z,6.25
2019-02-14T20:32:05.710Z,6.20
2019-02-14T20:34:32.844Z,6.06
2019-02-14T20:37:01.765Z,6.15
2019-02-14T20:39:29.304Z,6.16
2019-02-14T20:41:56.722Z,6.14
2019-02-14T20:44:24.780Z,6.29
2019-02-14T20:46:52.523Z,6.29
2019-02-14T20:49:19.822Z,6.17
2019-02-14T20:51:47.057Z,6.31
2019-02-14T20:54:14.593Z,6.21
2019-02-14T20:56:41.766Z,6.19
2019-02-14T20:59:09.504Z,6.12
2019-02-14T21:01:37.892Z,6.08
2019-02-14T21:04:06.304Z,6.09
2019-02-14T21:06:35.520Z,6.23
2019-02-14T21:09:04.179Z,6.09
2019-02-14T21:11:33.253Z,6.06
2019-02-14T21:14:00.531Z,6.11
2019-02-14T21:16:28.083Z,5.99
2019-02-14T21:18:55.165Z,6.11
2019-02-14T21:21:22.291Z,6.03
2019-02-14T21:23:50.312Z,5.97
2019-02-14T21:26:17.680Z,6.04
2019-02-14T21:28:44.743Z,5.95
2019-02-14T21:31:11.787Z,5.90
2019-02-14T21:33:39.552Z,5.91
2019-02-14T21:36:07.592Z,5.93
2019-02-14T21:38:36.310Z,5.95
2019-02-14T21:41:04.262Z,5.84
2019-02-14T21:43:32.031Z,5.84
2019-02-14T21:45:59.468Z,5.73
2019-02-14T21:48:26.620Z,5.65
2019-02-14T21:50:54.125Z,5.70
2019-02-14T21:53:23.597Z,5.81
2019-02-14T21:55:51.513Z,5.70
2019-02-14T21:58:19.263Z,5.79
2019-02-14T22:00:46.814Z,5.63
2019-02-14T22:03:16.719Z,5.59
2019-02-14T22:05:44.984Z,5.77
2019-02-14T22:08:12.663Z,5.72
2019-02-14T22:10:40.182Z,5.91
2019-02-14T22:13:07.417Z,5.84
2019-02-14T22:15:34.562Z,5.60
2019-02-14T22:18:02.678Z,5.59
2019-02-14T22:20:29.854Z,5.67
2019-02-14T22:22:56.944Z,5.52
2019-02-14T22:25:24.721Z,5.57
2019-02-14T22:27:53.335Z,5.46
2019-02-14T22:30:20.419Z,5.59
2019-02-14T22:32:48.119Z,5.42
2019-02-14T22:35:15.232Z,5.58
2019-02-14T22:37:42.930Z,5.36
2019-02-14T22:40:10.167Z,5.36
2019-02-14T22:42:46.233Z,5.15
2019-02-14T22:45:06.852Z,5.23
2019-02-14T22:47:34.703Z,5.33
2019-02-14T22:50:02.166Z,5.42
2019-02-14T22:52:31.074Z,5.27
2019-02-14T22:54:59.118Z,5.24
2019-02-14T22:57:26.889Z,5.24
2019-02-14T22:59:55.161Z,5.13
2019-02-14T23:02:22.359Z,5.35
2019-02-14T23:04:50.108Z,5.23
2019-02-14T23:07:18.963Z,5.09
2019-02-14T23:09:47.031Z,5.34
2019-02-14T23:12:14.515Z,5.33
2019-02-14T23:14:42.167Z,5.25
2019-02-14T23:17:09.832Z,5.21
2019-02-14T23:19:37.578Z,5.20
2019-02-14T23:22:05.386Z,5.41
2019-02-14T23:24:32.788Z,5.45
2019-02-14T23:27:00.563Z,5.25
2019-02-14T23:29:27.630Z,5.28
2019-02-14T23:31:54.987Z,5.31
2019-02-14T23:34:22.141Z,5.11
2019-02-14T23:36:49.410Z,5.18
2019-02-14T23:39:16.607Z,5.13
2019-02-14T23:41:44.993Z,5.08
2019-02-14T23:44:12.056Z,5.06
2019-02-14T23:46:39.454Z,5.00
2019-02-14T23:49:07.262Z,5.00
2019-02-14T23:51:34.338Z,5.12
2019-02-14T23:54:01.751Z,5.09
2019-02-14T23:56:29.177Z,5.09
2019-02-14T23:58:56.581Z,5.08
